sensor_id;sensor_type;location;lat;lon;timestamp;P1;durP1;ratioP1;P2;durP2;ratioP2
50709;SDS011;37033;49.994;21.992;2022-12-07T00:00:06;6.00;;;4.90;;
50709;SDS011;37033;49.994;21.992;2022-12-07T00:03:09;9.60;;;5.20;;
50709;SDS011;37033;49.994;21.992;2022-12-07T00:05:59;9.60;;;5.30;;
50709;SDS011;37033;49.994;21.992;2022-12-07T00:08:49;6.20;;;3.80;;
50709;SDS011;37033;49.994;21.992;2022-12-07T00:11:39;7.70;;;5.10;;
50709;SDS011;37033;49.994;21.992;2022-12-07T00:14:30;6.20;;;4.80;;
50709;SDS011;37033;49.994;21.992;2022-12-07T00:17:20;9.00;;;5.60;;
50709;SDS011;37033;49.994;21.992;2022-12-07T00:20:10;7.20;;;5.40;;
50709;SDS011;37033;49.994;21.992;2022-12-07T00:23:00;6.70;;;5.30;;
50709;SDS011;37033;49.994;21.992;2022-12-07T00:25:50;5.80;;;4.90;;
50709;SDS011;37033;49.994;21.992;2022-12-07T00:28:40;9.40;;;5.50;;
50709;SDS011;37033;49.994;21.992;2022-12-07T00:31:32;8.30;;;4.80;;
50709;SDS011;37033;49.994;21.992;2022-12-07T00:34:25;10.70;;;5.20;;
50709;SDS011;37033;49.994;21.992;2022-12-07T00:37:15;6.60;;;4.80;;
50709;SDS011;37033;49.994;21.992;2022-12-07T00:40:06;7.30;;;4.20;;
50709;SDS011;37033;49.994;21.992;2022-12-07T00:42:57;8.60;;;5.40;;
50709;SDS011;37033;49.994;21.992;2022-12-07T00:45:46;8.00;;;5.50;;
50709;SDS011;37033;49.994;21.992;2022-12-07T00:48:37;9.50;;;5.20;;
50709;SDS011;37033;49.994;21.992;2022-12-07T00:51:27;8.60;;;5.20;;
50709;SDS011;37033;49.994;21.992;2022-12-07T00:54:17;8.10;;;5.30;;
50709;SDS011;37033;49.994;21.992;2022-12-07T00:57:07;9.80;;;5.80;;
50709;SDS011;37033;49.994;21.992;2022-12-07T00:59:57;9.40;;;5.50;;
50709;SDS011;37033;49.994;21.992;2022-12-07T01:02:47;7.10;;;4.90;;
50709;SDS011;37033;49.994;21.992;2022-12-07T01:05:37;6.50;;;4.70;;
50709;SDS011;37033;49.994;21.992;2022-12-07T01:08:27;7.10;;;4.70;;
50709;SDS011;37033;49.994;21.992;2022-12-07T01:11:19;6.70;;;4.60;;
50709;SDS011;37033;49.994;21.992;2022-12-07T01:14:11;5.80;;;4.60;;
50709;SDS011;37033;49.994;21.992;2022-12-07T01:17:01;8.00;;;4.80;;
50709;SDS011;37033;49.994;21.992;2022-12-07T01:19:51;5.90;;;4.40;;
50709;SDS011;37033;49.994;21.992;2022-12-07T01:22:42;6.60;;;4.70;;
50709;SDS011;37033;49.994;21.992;2022-12-07T01:25:32;7.40;;;4.80;;
50709;SDS011;37033;49.994;21.992;2022-12-07T01:28:22;6.50;;;4.50;;
50709;SDS011;37033;49.994;21.992;2022-12-07T01:31:13;5.60;;;5.00;;
50709;SDS011;37033;49.994;21.992;2022-12-07T01:34:05;8.90;;;5.20;;
50709;SDS011;37033;49.994;21.992;2022-12-07T01:36:56;6.60;;;4.40;;
50709;SDS011;37033;49.994;21.992;2022-12-07T01:39:46;6.00;;;4.50;;
50709;SDS011;37033;49.994;21.992;2022-12-07T01:42:38;5.40;;;4.40;;
50709;SDS011;37033;49.994;21.992;2022-12-07T01:51:24;6.30;;;4.20;;
50709;SDS011;37033;49.994;21.992;2022-12-07T01:54:16;8.10;;;4.90;;
50709;SDS011;37033;49.994;21.992;2022-12-07T01:57:08;7.10;;;4.90;;
50709;SDS011;37033;49.994;21.992;2022-12-07T01:59:59;10.20;;;5.10;;
50709;SDS011;37033;49.994;21.992;2022-12-07T02:02:53;6.80;;;4.40;;
50709;SDS011;37033;49.994;21.992;2022-12-07T02:05:48;8.10;;;5.50;;
50709;SDS011;37033;49.994;21.992;2022-12-07T02:08:39;9.10;;;5.00;;
50709;SDS011;37033;49.994;21.992;2022-12-07T02:11:29;7.50;;;4.50;;
50709;SDS011;37033;49.994;21.992;2022-12-07T02:14:19;6.50;;;4.60;;
50709;SDS011;37033;49.994;21.992;2022-12-07T02:17:10;8.40;;;5.00;;
50709;SDS011;37033;49.994;21.992;2022-12-07T02:20:20;5.80;;;5.10;;
50709;SDS011;37033;49.994;21.992;2022-12-07T02:26:45;5.90;;;4.60;;
50709;SDS011;37033;49.994;21.992;2022-12-07T02:29:49;6.50;;;5.30;;
50709;SDS011;37033;49.994;21.992;2022-12-07T02:32:46;7.50;;;5.00;;
50709;SDS011;37033;49.994;21.992;2022-12-07T02:35:44;7.50;;;5.40;;
50709;SDS011;37033;49.994;21.992;2022-12-07T02:38:43;6.80;;;5.10;;
50709;SDS011;37033;49.994;21.992;2022-12-07T02:41:40;10.60;;;5.50;;
50709;SDS011;37033;49.994;21.992;2022-12-07T02:44:35;9.00;;;4.50;;
50709;SDS011;37033;49.994;21.992;2022-12-07T02:47:26;6.80;;;4.80;;
50709;SDS011;37033;49.994;21.992;2022-12-07T02:50:18;9.20;;;5.60;;
50709;SDS011;37033;49.994;21.992;2022-12-07T02:56:20;7.60;;;5.10;;
50709;SDS011;37033;49.994;21.992;2022-12-07T02:59:20;6.20;;;4.70;;
50709;SDS011;37033;49.994;21.992;2022-12-07T03:02:20;7.00;;;5.10;;
50709;SDS011;37033;49.994;21.992;2022-12-07T03:08:33;6.20;;;4.40;;
50709;SDS011;37033;49.994;21.992;2022-12-07T03:11:32;8.10;;;5.40;;
50709;SDS011;37033;49.994;21.992;2022-12-07T03:14:30;8.70;;;4.80;;
50709;SDS011;37033;49.994;21.992;2022-12-07T03:17:24;7.00;;;5.00;;
50709;SDS011;37033;49.994;21.992;2022-12-07T03:20:20;7.40;;;5.40;;
50709;SDS011;37033;49.994;21.992;2022-12-07T03:23:13;7.90;;;5.30;;
50709;SDS011;37033;49.994;21.992;2022-12-07T03:26:06;6.30;;;4.50;;
50709;SDS011;37033;49.994;21.992;2022-12-07T03:29:01;6.50;;;5.20;;
50709;SDS011;37033;49.994;21.992;2022-12-07T03:31:55;7.60;;;5.30;;
50709;SDS011;37033;49.994;21.992;2022-12-07T03:34:51;6.60;;;5.10;;
50709;SDS011;37033;49.994;21.992;2022-12-07T03:37:48;6.10;;;5.00;;
50709;SDS011;37033;49.994;21.992;2022-12-07T03:40:43;7.10;;;4.90;;
50709;SDS011;37033;49.994;21.992;2022-12-07T03:43:37;8.60;;;5.10;;
50709;SDS011;37033;49.994;21.992;2022-12-07T03:46:32;8.00;;;5.20;;
50709;SDS011;37033;49.994;21.992;2022-12-07T03:49:32;7.70;;;5.80;;
50709;SDS011;37033;49.994;21.992;2022-12-07T03:52:30;7.10;;;5.30;;
50709;SDS011;37033;49.994;21.992;2022-12-07T03:55:28;6.80;;;4.70;;
50709;SDS011;37033;49.994;21.992;2022-12-07T03:58:21;9.40;;;5.50;;
50709;SDS011;37033;49.994;21.992;2022-12-07T04:01:11;7.50;;;5.70;;
50709;SDS011;37033;49.994;21.992;2022-12-07T04:04:01;9.60;;;4.90;;
50709;SDS011;37033;49.994;21.992;2022-12-07T04:06:51;6.70;;;5.00;;
50709;SDS011;37033;49.994;21.992;2022-12-07T04:09:43;6.20;;;4.50;;
50709;SDS011;37033;49.994;21.992;2022-12-07T04:12:33;7.00;;;4.70;;
50709;SDS011;37033;49.994;21.992;2022-12-07T04:15:22;5.80;;;4.60;;
50709;SDS011;37033;49.994;21.992;2022-12-07T04:18:13;5.20;;;3.80;;
50709;SDS011;37033;49.994;21.992;2022-12-07T04:21:03;10.10;;;5.00;;
50709;SDS011;37033;49.994;21.992;2022-12-07T04:23:53;7.40;;;4.80;;
50709;SDS011;37033;49.994;21.992;2022-12-07T04:26:43;5.50;;;4.20;;
50709;SDS011;37033;49.994;21.992;2022-12-07T04:29:36;8.30;;;5.30;;
50709;SDS011;37033;49.994;21.992;2022-12-07T04:32:25;8.70;;;4.80;;
50709;SDS011;37033;49.994;21.992;2022-12-07T04:35:15;9.40;;;5.70;;
50709;SDS011;37033;49.994;21.992;2022-12-07T04:38:05;9.00;;;5.20;;
50709;SDS011;37033;49.994;21.992;2022-12-07T04:40:55;9.20;;;5.00;;
50709;SDS011;37033;49.994;21.992;2022-12-07T04:43:45;9.10;;;5.20;;
50709;SDS011;37033;49.994;21.992;2022-12-07T04:46:35;9.40;;;5.20;;
50709;SDS011;37033;49.994;21.992;2022-12-07T04:49:25;13.80;;;7.00;;
50709;SDS011;37033;49.994;21.992;2022-12-07T04:52:15;6.70;;;4.90;;
50709;SDS011;37033;49.994;21.992;2022-12-07T04:55:06;6.90;;;4.90;;
50709;SDS011;37033;49.994;21.992;2022-12-07T04:57:56;8.60;;;4.90;;
50709;SDS011;37033;49.994;21.992;2022-12-07T05:00:45;6.00;;;4.90;;
50709;SDS011;37033;49.994;21.992;2022-12-07T05:03:36;5.10;;;4.20;;
50709;SDS011;37033;49.994;21.992;2022-12-07T05:06:27;6.90;;;5.20;;
50709;SDS011;37033;49.994;21.992;2022-12-07T05:09:17;5.00;;;4.30;;
50709;SDS011;37033;49.994;21.992;2022-12-07T05:12:07;10.30;;;6.30;;
50709;SDS011;37033;49.994;21.992;2022-12-07T05:14:58;11.60;;;6.50;;
50709;SDS011;37033;49.994;21.992;2022-12-07T05:17:48;10.90;;;5.90;;
50709;SDS011;37033;49.994;21.992;2022-12-07T05:20:39;9.00;;;5.90;;
50709;SDS011;37033;49.994;21.992;2022-12-07T05:23:30;6.80;;;5.20;;
50709;SDS011;37033;49.994;21.992;2022-12-07T05:26:20;12.60;;;6.20;;
50709;SDS011;37033;49.994;21.992;2022-12-07T05:29:11;7.80;;;6.00;;
50709;SDS011;37033;49.994;21.992;2022-12-07T05:32:02;8.00;;;6.00;;
50709;SDS011;37033;49.994;21.992;2022-12-07T05:34:52;6.90;;;5.40;;
50709;SDS011;37033;49.994;21.992;2022-12-07T05:37:42;8.70;;;5.80;;
50709;SDS011;37033;49.994;21.992;2022-12-07T05:40:32;7.90;;;6.10;;
50709;SDS011;37033;49.994;21.992;2022-12-07T05:43:22;11.10;;;6.90;;
50709;SDS011;37033;49.994;21.992;2022-12-07T05:46:12;9.70;;;5.40;;
50709;SDS011;37033;49.994;21.992;2022-12-07T05:49:02;6.40;;;5.20;;
50709;SDS011;37033;49.994;21.992;2022-12-07T05:51:53;8.70;;;5.70;;
50709;SDS011;37033;49.994;21.992;2022-12-07T05:54:42;7.10;;;5.50;;
50709;SDS011;37033;49.994;21.992;2022-12-07T05:57:32;6.70;;;5.10;;
50709;SDS011;37033;49.994;21.992;2022-12-07T06:00:22;8.70;;;5.40;;
50709;SDS011;37033;49.994;21.992;2022-12-07T06:03:12;7.30;;;5.30;;
50709;SDS011;37033;49.994;21.992;2022-12-07T06:06:02;7.00;;;4.90;;
50709;SDS011;37033;49.994;21.992;2022-12-07T06:08:52;5.60;;;4.30;;
50709;SDS011;37033;49.994;21.992;2022-12-07T06:11:43;6.20;;;5.00;;
50709;SDS011;37033;49.994;21.992;2022-12-07T06:14:52;7.70;;;3.70;;
50709;SDS011;37033;49.994;21.992;2022-12-07T06:17:41;7.90;;;4.70;;
50709;SDS011;37033;49.994;21.992;2022-12-07T06:20:31;6.60;;;4.80;;
50709;SDS011;37033;49.994;21.992;2022-12-07T06:23:21;6.90;;;4.60;;
50709;SDS011;37033;49.994;21.992;2022-12-07T06:26:11;6.80;;;4.50;;
50709;SDS011;37033;49.994;21.992;2022-12-07T06:29:01;7.20;;;5.10;;
50709;SDS011;37033;49.994;21.992;2022-12-07T06:31:51;4.80;;;4.10;;
50709;SDS011;37033;49.994;21.992;2022-12-07T06:34:41;4.40;;;3.80;;
50709;SDS011;37033;49.994;21.992;2022-12-07T06:37:31;5.60;;;4.20;;
50709;SDS011;37033;49.994;21.992;2022-12-07T06:40:21;4.90;;;4.40;;
50709;SDS011;37033;49.994;21.992;2022-12-07T06:43:12;5.10;;;4.40;;
50709;SDS011;37033;49.994;21.992;2022-12-07T06:46:02;5.70;;;3.70;;
50709;SDS011;37033;49.994;21.992;2022-12-07T06:48:51;7.50;;;4.70;;
50709;SDS011;37033;49.994;21.992;2022-12-07T06:51:42;5.20;;;4.60;;
50709;SDS011;37033;49.994;21.992;2022-12-07T06:54:32;7.60;;;4.50;;
50709;SDS011;37033;49.994;21.992;2022-12-07T06:57:22;5.40;;;4.00;;
50709;SDS011;37033;49.994;21.992;2022-12-07T07:00:13;6.40;;;5.00;;
50709;SDS011;37033;49.994;21.992;2022-12-07T07:03:04;6.20;;;4.30;;
50709;SDS011;37033;49.994;21.992;2022-12-07T07:05:54;5.50;;;4.60;;
50709;SDS011;37033;49.994;21.992;2022-12-07T07:08:44;7.10;;;5.40;;
50709;SDS011;37033;49.994;21.992;2022-12-07T07:11:34;6.40;;;5.20;;
50709;SDS011;37033;49.994;21.992;2022-12-07T07:14:24;6.40;;;5.20;;
50709;SDS011;37033;49.994;21.992;2022-12-07T07:17:14;6.40;;;4.80;;
50709;SDS011;37033;49.994;21.992;2022-12-07T07:20:05;6.20;;;4.60;;
50709;SDS011;37033;49.994;21.992;2022-12-07T07:22:56;5.90;;;4.40;;
50709;SDS011;37033;49.994;21.992;2022-12-07T07:25:47;6.00;;;4.90;;
50709;SDS011;37033;49.994;21.992;2022-12-07T07:28:37;6.20;;;5.00;;
50709;SDS011;37033;49.994;21.992;2022-12-07T07:31:28;7.00;;;5.50;;
50709;SDS011;37033;49.994;21.992;2022-12-07T07:34:19;6.90;;;5.60;;
50709;SDS011;37033;49.994;21.992;2022-12-07T07:37:09;7.90;;;5.60;;
50709;SDS011;37033;49.994;21.992;2022-12-07T07:39:59;8.80;;;5.50;;
50709;SDS011;37033;49.994;21.992;2022-12-07T07:42:50;6.90;;;5.60;;
50709;SDS011;37033;49.994;21.992;2022-12-07T07:45:41;6.90;;;6.10;;
50709;SDS011;37033;49.994;21.992;2022-12-07T07:48:32;8.70;;;6.70;;
50709;SDS011;37033;49.994;21.992;2022-12-07T07:51:22;9.20;;;6.20;;
50709;SDS011;37033;49.994;21.992;2022-12-07T07:54:12;8.50;;;6.20;;
50709;SDS011;37033;49.994;21.992;2022-12-07T07:57:01;8.30;;;6.60;;
50709;SDS011;37033;49.994;21.992;2022-12-07T07:59:51;8.10;;;6.60;;
50709;SDS011;37033;49.994;21.992;2022-12-07T08:02:41;8.10;;;6.20;;
50709;SDS011;37033;49.994;21.992;2022-12-07T08:05:33;8.80;;;6.80;;
50709;SDS011;37033;49.994;21.992;2022-12-07T08:08:24;8.40;;;6.90;;
50709;SDS011;37033;49.994;21.992;2022-12-07T08:11:14;10.40;;;6.10;;
50709;SDS011;37033;49.994;21.992;2022-12-07T08:14:04;7.40;;;6.70;;
50709;SDS011;37033;49.994;21.992;2022-12-07T08:16:54;9.30;;;7.20;;
50709;SDS011;37033;49.994;21.992;2022-12-07T08:19:44;7.60;;;6.30;;
50709;SDS011;37033;49.994;21.992;2022-12-07T08:22:34;11.60;;;6.50;;
50709;SDS011;37033;49.994;21.992;2022-12-07T08:25:24;8.00;;;7.00;;
50709;SDS011;37033;49.994;21.992;2022-12-07T08:28:14;7.40;;;5.90;;
50709;SDS011;37033;49.994;21.992;2022-12-07T08:31:06;9.20;;;6.50;;
50709;SDS011;37033;49.994;21.992;2022-12-07T08:33:59;7.80;;;6.30;;
50709;SDS011;37033;49.994;21.992;2022-12-07T08:36:50;7.50;;;5.70;;
50709;SDS011;37033;49.994;21.992;2022-12-07T08:39:40;8.70;;;5.60;;
50709;SDS011;37033;49.994;21.992;2022-12-07T08:42:30;8.10;;;6.60;;
50709;SDS011;37033;49.994;21.992;2022-12-07T08:45:25;10.20;;;6.50;;
50709;SDS011;37033;49.994;21.992;2022-12-07T08:48:19;12.10;;;8.00;;
50709;SDS011;37033;49.994;21.992;2022-12-07T08:51:10;12.70;;;7.30;;
50709;SDS011;37033;49.994;21.992;2022-12-07T08:54:02;8.00;;;6.90;;
50709;SDS011;37033;49.994;21.992;2022-12-07T08:56:55;6.50;;;5.90;;
50709;SDS011;37033;49.994;21.992;2022-12-07T08:59:46;7.40;;;5.70;;
50709;SDS011;37033;49.994;21.992;2022-12-07T09:02:36;9.10;;;6.70;;
50709;SDS011;37033;49.994;21.992;2022-12-07T09:05:25;9.50;;;6.50;;
50709;SDS011;37033;49.994;21.992;2022-12-07T09:08:15;11.60;;;6.90;;
50709;SDS011;37033;49.994;21.992;2022-12-07T09:11:05;7.80;;;6.60;;
50709;SDS011;37033;49.994;21.992;2022-12-07T09:13:55;8.10;;;6.60;;
50709;SDS011;37033;49.994;21.992;2022-12-07T09:16:45;7.70;;;6.10;;
50709;SDS011;37033;49.994;21.992;2022-12-07T09:19:37;7.40;;;6.50;;
50709;SDS011;37033;49.994;21.992;2022-12-07T09:22:32;10.30;;;7.00;;
50709;SDS011;37033;49.994;21.992;2022-12-07T09:25:24;7.90;;;6.10;;
50709;SDS011;37033;49.994;21.992;2022-12-07T09:28:18;7.00;;;6.00;;
50709;SDS011;37033;49.994;21.992;2022-12-07T09:31:09;8.90;;;6.30;;
50709;SDS011;37033;49.994;21.992;2022-12-07T09:34:00;6.80;;;5.70;;
50709;SDS011;37033;49.994;21.992;2022-12-07T09:36:52;7.50;;;5.90;;
50709;SDS011;37033;49.994;21.992;2022-12-07T09:39:43;6.80;;;5.90;;
50709;SDS011;37033;49.994;21.992;2022-12-07T09:42:34;7.30;;;6.60;;
50709;SDS011;37033;49.994;21.992;2022-12-07T09:45:27;8.50;;;6.50;;
50709;SDS011;37033;49.994;21.992;2022-12-07T09:48:22;8.50;;;6.40;;
50709;SDS011;37033;49.994;21.992;2022-12-07T09:51:18;8.40;;;6.70;;
50709;SDS011;37033;49.994;21.992;2022-12-07T09:54:11;8.20;;;6.60;;
50709;SDS011;37033;49.994;21.992;2022-12-07T09:57:02;7.90;;;5.90;;
50709;SDS011;37033;49.994;21.992;2022-12-07T09:59:52;6.90;;;6.10;;
50709;SDS011;37033;49.994;21.992;2022-12-07T10:02:42;8.20;;;6.30;;
50709;SDS011;37033;49.994;21.992;2022-12-07T10:05:35;8.50;;;5.90;;
50709;SDS011;37033;49.994;21.992;2022-12-07T10:08:31;7.20;;;6.30;;
50709;SDS011;37033;49.994;21.992;2022-12-07T10:11:21;6.60;;;5.40;;
50709;SDS011;37033;49.994;21.992;2022-12-07T10:14:13;6.40;;;5.80;;
50709;SDS011;37033;49.994;21.992;2022-12-07T10:17:08;5.30;;;4.80;;
50709;SDS011;37033;49.994;21.992;2022-12-07T10:20:21;7.20;;;6.10;;
50709;SDS011;37033;49.994;21.992;2022-12-07T10:23:15;8.10;;;5.30;;
50709;SDS011;37033;49.994;21.992;2022-12-07T10:26:26;10.40;;;7.40;;
50709;SDS011;37033;49.994;21.992;2022-12-07T10:29:20;6.90;;;6.00;;
50709;SDS011;37033;49.994;21.992;2022-12-07T10:35:37;7.80;;;6.10;;
50709;SDS011;37033;49.994;21.992;2022-12-07T10:38:32;10.20;;;6.70;;
50709;SDS011;37033;49.994;21.992;2022-12-07T10:41:32;10.20;;;6.10;;
50709;SDS011;37033;49.994;21.992;2022-12-07T10:44:22;8.50;;;6.20;;
50709;SDS011;37033;49.994;21.992;2022-12-07T10:47:17;10.50;;;6.40;;
50709;SDS011;37033;49.994;21.992;2022-12-07T10:50:22;9.20;;;6.60;;
50709;SDS011;37033;49.994;21.992;2022-12-07T10:53:32;8.70;;;6.60;;
50709;SDS011;37033;49.994;21.992;2022-12-07T11:00:03;7.20;;;5.80;;
50709;SDS011;37033;49.994;21.992;2022-12-07T11:06:16;8.00;;;5.50;;
50709;SDS011;37033;49.994;21.992;2022-12-07T11:09:25;8.90;;;6.40;;
50709;SDS011;37033;49.994;21.992;2022-12-07T11:12:37;8.50;;;6.30;;
50709;SDS011;37033;49.994;21.992;2022-12-07T11:15:42;11.30;;;8.00;;
50709;SDS011;37033;49.994;21.992;2022-12-07T11:18:44;9.10;;;6.70;;
50709;SDS011;37033;49.994;21.992;2022-12-07T11:21:48;15.20;;;7.90;;
50709;SDS011;37033;49.994;21.992;2022-12-07T11:24:47;9.20;;;6.20;;
50709;SDS011;37033;49.994;21.992;2022-12-07T11:27:46;6.80;;;6.00;;
50709;SDS011;37033;49.994;21.992;2022-12-07T11:30:47;8.60;;;6.50;;
50709;SDS011;37033;49.994;21.992;2022-12-07T11:33:46;10.40;;;7.00;;
50709;SDS011;37033;49.994;21.992;2022-12-07T11:36:43;11.20;;;7.40;;
50709;SDS011;37033;49.994;21.992;2022-12-07T11:39:36;9.50;;;7.20;;
50709;SDS011;37033;49.994;21.992;2022-12-07T11:42:35;10.80;;;7.20;;
50709;SDS011;37033;49.994;21.992;2022-12-07T11:45:30;11.10;;;7.80;;
50709;SDS011;37033;49.994;21.992;2022-12-07T11:48:28;11.80;;;8.40;;
50709;SDS011;37033;49.994;21.992;2022-12-07T11:51:22;12.00;;;7.10;;
50709;SDS011;37033;49.994;21.992;2022-12-07T11:54:14;8.70;;;7.20;;
50709;SDS011;37033;49.994;21.992;2022-12-07T11:57:10;24.40;;;12.40;;
50709;SDS011;37033;49.994;21.992;2022-12-07T12:00:11;16.70;;;9.30;;
50709;SDS011;37033;49.994;21.992;2022-12-07T12:03:05;11.70;;;7.70;;
50709;SDS011;37033;49.994;21.992;2022-12-07T12:06:01;11.00;;;7.20;;
50709;SDS011;37033;49.994;21.992;2022-12-07T12:08:53;9.90;;;6.90;;
50709;SDS011;37033;49.994;21.992;2022-12-07T12:15:18;12.20;;;8.70;;
50709;SDS011;37033;49.994;21.992;2022-12-07T12:18:24;14.50;;;9.20;;
50709;SDS011;37033;49.994;21.992;2022-12-07T12:21:25;14.80;;;9.40;;
50709;SDS011;37033;49.994;21.992;2022-12-07T12:24:18;14.80;;;10.00;;
50709;SDS011;37033;49.994;21.992;2022-12-07T12:33:28;13.00;;;8.40;;
50709;SDS011;37033;49.994;21.992;2022-12-07T12:36:22;11.00;;;7.90;;
50709;SDS011;37033;49.994;21.992;2022-12-07T12:39:14;11.40;;;7.60;;
50709;SDS011;37033;49.994;21.992;2022-12-07T12:42:06;16.30;;;10.30;;
50709;SDS011;37033;49.994;21.992;2022-12-07T12:45:21;17.20;;;11.60;;
50709;SDS011;37033;49.994;21.992;2022-12-07T12:51:39;36.80;;;15.60;;
50709;SDS011;37033;49.994;21.992;2022-12-07T12:54:30;16.90;;;9.70;;
50709;SDS011;37033;49.994;21.992;2022-12-07T12:57:24;15.00;;;7.90;;
50709;SDS011;37033;49.994;21.992;2022-12-07T13:00:18;14.80;;;9.20;;
50709;SDS011;37033;49.994;21.992;2022-12-07T13:03:16;12.50;;;6.90;;
50709;SDS011;37033;49.994;21.992;2022-12-07T13:06:31;15.70;;;8.60;;
50709;SDS011;37033;49.994;21.992;2022-12-07T13:09:27;13.40;;;8.10;;
50709;SDS011;37033;49.994;21.992;2022-12-07T13:12:20;8.80;;;5.60;;
50709;SDS011;37033;49.994;21.992;2022-12-07T13:18:25;10.20;;;6.10;;
50709;SDS011;37033;49.994;21.992;2022-12-07T13:21:42;10.10;;;6.20;;
50709;SDS011;37033;49.994;21.992;2022-12-07T13:24:32;8.40;;;5.70;;
50709;SDS011;37033;49.994;21.992;2022-12-07T13:27:22;8.10;;;5.90;;
50709;SDS011;37033;49.994;21.992;2022-12-07T13:30:15;9.90;;;6.50;;
50709;SDS011;37033;49.994;21.992;2022-12-07T13:35:57;8.90;;;5.90;;
50709;SDS011;37033;49.994;21.992;2022-12-07T13:38:52;11.50;;;7.50;;
50709;SDS011;37033;49.994;21.992;2022-12-07T13:41:44;12.60;;;8.40;;
50709;SDS011;37033;49.994;21.992;2022-12-07T13:44:39;13.00;;;8.40;;
50709;SDS011;37033;49.994;21.992;2022-12-07T13:47:31;13.30;;;9.20;;
50709;SDS011;37033;49.994;21.992;2022-12-07T13:50:25;12.00;;;8.90;;
50709;SDS011;37033;49.994;21.992;2022-12-07T13:53:18;16.90;;;9.40;;
50709;SDS011;37033;49.994;21.992;2022-12-07T13:56:12;15.10;;;9.70;;
50709;SDS011;37033;49.994;21.992;2022-12-07T13:59:02;17.30;;;9.70;;
50709;SDS011;37033;49.994;21.992;2022-12-07T14:01:58;17.70;;;9.90;;
50709;SDS011;37033;49.994;21.992;2022-12-07T14:04:49;14.60;;;9.00;;
50709;SDS011;37033;49.994;21.992;2022-12-07T14:07:52;24.50;;;12.70;;
50709;SDS011;37033;49.994;21.992;2022-12-07T14:10:54;26.10;;;14.30;;
50709;SDS011;37033;49.994;21.992;2022-12-07T14:13:50;15.10;;;8.70;;
50709;SDS011;37033;49.994;21.992;2022-12-07T14:16:54;14.70;;;9.80;;
50709;SDS011;37033;49.994;21.992;2022-12-07T14:19:50;13.80;;;8.10;;
50709;SDS011;37033;49.994;21.992;2022-12-07T14:22:41;14.50;;;8.90;;
50709;SDS011;37033;49.994;21.992;2022-12-07T14:25:49;15.30;;;9.40;;
50709;SDS011;37033;49.994;21.992;2022-12-07T14:28:41;15.50;;;9.20;;
50709;SDS011;37033;49.994;21.992;2022-12-07T14:31:31;16.40;;;9.00;;
50709;SDS011;37033;49.994;21.992;2022-12-07T14:34:21;19.30;;;10.30;;
50709;SDS011;37033;49.994;21.992;2022-12-07T14:37:12;22.70;;;10.60;;
50709;SDS011;37033;49.994;21.992;2022-12-07T14:40:03;38.40;;;16.50;;
50709;SDS011;37033;49.994;21.992;2022-12-07T14:42:55;22.80;;;12.60;;
50709;SDS011;37033;49.994;21.992;2022-12-07T14:45:49;20.10;;;11.00;;
50709;SDS011;37033;49.994;21.992;2022-12-07T14:48:39;26.80;;;12.60;;
50709;SDS011;37033;49.994;21.992;2022-12-07T14:51:29;27.40;;;12.50;;
50709;SDS011;37033;49.994;21.992;2022-12-07T14:54:20;88.40;;;29.80;;
50709;SDS011;37033;49.994;21.992;2022-12-07T14:57:13;104.90;;;37.60;;
50709;SDS011;37033;49.994;21.992;2022-12-07T15:00:04;32.80;;;15.40;;
50709;SDS011;37033;49.994;21.992;2022-12-07T15:03:01;22.70;;;10.90;;
50709;SDS011;37033;49.994;21.992;2022-12-07T15:05:51;22.70;;;11.10;;
50709;SDS011;37033;49.994;21.992;2022-12-07T15:08:41;21.80;;;12.40;;
50709;SDS011;37033;49.994;21.992;2022-12-07T15:11:31;20.80;;;10.90;;
50709;SDS011;37033;49.994;21.992;2022-12-07T15:14:21;16.60;;;10.90;;
50709;SDS011;37033;49.994;21.992;2022-12-07T15:17:11;18.30;;;10.30;;
50709;SDS011;37033;49.994;21.992;2022-12-07T15:20:02;18.00;;;10.70;;
50709;SDS011;37033;49.994;21.992;2022-12-07T15:22:53;17.20;;;10.50;;
50709;SDS011;37033;49.994;21.992;2022-12-07T15:25:43;16.40;;;9.60;;
50709;SDS011;37033;49.994;21.992;2022-12-07T15:28:34;18.70;;;10.70;;
50709;SDS011;37033;49.994;21.992;2022-12-07T15:31:24;20.00;;;11.90;;
50709;SDS011;37033;49.994;21.992;2022-12-07T15:34:14;25.80;;;13.40;;
50709;SDS011;37033;49.994;21.992;2022-12-07T15:37:04;22.80;;;11.70;;
50709;SDS011;37033;49.994;21.992;2022-12-07T15:39:55;22.00;;;12.30;;
50709;SDS011;37033;49.994;21.992;2022-12-07T15:42:45;17.50;;;10.50;;
50709;SDS011;37033;49.994;21.992;2022-12-07T15:45:35;32.40;;;19.10;;
50709;SDS011;37033;49.994;21.992;2022-12-07T15:48:25;19.80;;;12.20;;
50709;SDS011;37033;49.994;21.992;2022-12-07T15:51:15;15.00;;;10.80;;
50709;SDS011;37033;49.994;21.992;2022-12-07T15:54:05;18.90;;;11.30;;
50709;SDS011;37033;49.994;21.992;2022-12-07T15:56:57;17.30;;;10.40;;
50709;SDS011;37033;49.994;21.992;2022-12-07T15:59:47;20.90;;;11.50;;
50709;SDS011;37033;49.994;21.992;2022-12-07T16:02:37;21.10;;;10.90;;
50709;SDS011;37033;49.994;21.992;2022-12-07T16:05:27;19.30;;;11.60;;
50709;SDS011;37033;49.994;21.992;2022-12-07T16:08:17;20.10;;;12.00;;
50709;SDS011;37033;49.994;21.992;2022-12-07T16:11:07;22.40;;;14.10;;
50709;SDS011;37033;49.994;21.992;2022-12-07T16:13:58;31.20;;;18.10;;
50709;SDS011;37033;49.994;21.992;2022-12-07T16:16:48;19.70;;;13.00;;
50709;SDS011;37033;49.994;21.992;2022-12-07T16:19:38;21.40;;;13.50;;
50709;SDS011;37033;49.994;21.992;2022-12-07T16:22:29;22.30;;;13.10;;
50709;SDS011;37033;49.994;21.992;2022-12-07T16:25:19;20.50;;;11.90;;
50709;SDS011;37033;49.994;21.992;2022-12-07T16:28:09;20.20;;;12.50;;
50709;SDS011;37033;49.994;21.992;2022-12-07T16:31:03;21.40;;;12.60;;
50709;SDS011;37033;49.994;21.992;2022-12-07T16:33:56;24.50;;;13.50;;
50709;SDS011;37033;49.994;21.992;2022-12-07T16:36:47;24.20;;;13.50;;
50709;SDS011;37033;49.994;21.992;2022-12-07T16:39:37;35.00;;;18.30;;
50709;SDS011;37033;49.994;21.992;2022-12-07T16:42:27;30.10;;;17.50;;
50709;SDS011;37033;49.994;21.992;2022-12-07T16:45:21;25.70;;;15.70;;
50709;SDS011;37033;49.994;21.992;2022-12-07T16:48:11;37.40;;;17.90;;
50709;SDS011;37033;49.994;21.992;2022-12-07T16:51:03;31.70;;;15.40;;
50709;SDS011;37033;49.994;21.992;2022-12-07T16:53:54;36.80;;;16.90;;
50709;SDS011;37033;49.994;21.992;2022-12-07T16:56:45;41.20;;;17.60;;
50709;SDS011;37033;49.994;21.992;2022-12-07T16:59:35;39.80;;;18.00;;
50709;SDS011;37033;49.994;21.992;2022-12-07T17:02:25;41.50;;;17.80;;
50709;SDS011;37033;49.994;21.992;2022-12-07T17:05:15;40.90;;;17.90;;
50709;SDS011;37033;49.994;21.992;2022-12-07T17:08:05;41.40;;;17.50;;
50709;SDS011;37033;49.994;21.992;2022-12-07T17:10:56;35.80;;;16.70;;
50709;SDS011;37033;49.994;21.992;2022-12-07T17:13:46;37.90;;;16.70;;
50709;SDS011;37033;49.994;21.992;2022-12-07T17:16:55;34.60;;;16.20;;
50709;SDS011;37033;49.994;21.992;2022-12-07T17:19:44;33.70;;;18.00;;
50709;SDS011;37033;49.994;21.992;2022-12-07T17:22:35;32.60;;;17.90;;
50709;SDS011;37033;49.994;21.992;2022-12-07T17:25:24;55.50;;;26.10;;
50709;SDS011;37033;49.994;21.992;2022-12-07T17:28:14;62.60;;;31.10;;
50709;SDS011;37033;49.994;21.992;2022-12-07T17:31:05;50.90;;;28.40;;
50709;SDS011;37033;49.994;21.992;2022-12-07T17:33:56;54.50;;;27.30;;
50709;SDS011;37033;49.994;21.992;2022-12-07T17:36:47;50.70;;;23.30;;
50709;SDS011;37033;49.994;21.992;2022-12-07T17:39:37;53.10;;;23.60;;